Time;durP1;ratioP1;P1;durP2;ratioP2;P2;SDS_P1;SDS_P2;PMS_P1;PMS_P2;Temp;Humidity;BMP_temperature;BMP_pressure;BME280_temperature;BME280_humidity;BME280_pressure;Samples;Min_cycle;Max_cycle;Signal;HPM_P1;HPM_P2
2021/12/09 00:01:02;;;;;;;86.07;56.10;;;;;;;4.42;62.84;99210.09;5034206;28;20459;-78
2021/12/09 00:03:34;;;;;;;84.50;57.07;;;;;;;4.99;63.09;99283.94;5034402;28;20056;-77
2021/12/09 00:06:00;;;;;;;;;;;;;;;4.82;63.25;99289.97;5034698;28;20509;-78
2021/12/09 00:08:28;;;;;;;79.73;51.63;;;;;;;4.40;63.11;99210.25;5033974;28;19909;-78
2021/12/09 00:10:56;;;;;;;64.23;45.13;;;;;;;4.55;62.80;99235.94;5034158;28;20025;-78
2021/12/09 00:13:23;;;;;;;65.20;43.23;;;;;;;4.43;62.90;99214.38;5032528;28;20083;-78
2021/12/09 00:15:50;;;;;;;64.40;43.30;;;;;;;4.91;62.67;99291.72;5033525;28;20037;-78
2021/12/09 00:18:16;;;;;;;61.63;42.13;;;;;;;4.90;62.77;99293.50;5032401;28;20384;-78
2021/12/09 00:20:42;;;;;;;56.00;40.73;;;;;;;4.88;62.85;99305.09;5034173;28;20174;-78
2021/12/09 00:23:08;;;;;;;58.43;40.17;;;;;;;4.82;62.63;99309.13;5033792;28;20079;-78
2021/12/09 00:25:34;;;;;;;62.03;41.33;;;;;;;4.32;62.94;99232.88;5033816;28;20112;-78
2021/12/09 00:28:00;;;;;;;55.90;41.07;;;;;;;4.05;62.92;99199.72;5033951;28;20044;-78
2021/12/09 00:30:26;;;;;;;58.43;40.60;;;;;;;4.11;63.34;99230.50;5033501;28;20115;-78
2021/12/09 00:32:51;;;;;;;54.37;38.63;;;;;;;4.24;62.86;99261.53;5033716;28;20087;-77
2021/12/09 00:35:18;;;;;;;57.33;39.93;;;;;;;4.55;63.28;99333.50;5033460;28;20417;-78
2021/12/09 00:38:00;;;;;;;53.23;36.67;;;;;;;3.52;63.16;99161.16;5033386;28;20033;-78
2021/12/09 00:40:25;;;;;;;50.53;36.63;;;;;;;4.07;63.07;99250.88;5033546;28;20030;-77
2021/12/09 00:42:51;;;;;;;50.40;36.07;;;;;;;3.89;63.20;99220.41;5031185;28;20049;-78
2021/12/09 00:45:17;;;;;;;48.47;35.83;;;;;;;4.42;63.45;99314.66;5033322;28;20037;-77
2021/12/09 00:47:43;;;;;;;47.00;34.53;;;;;;;3.86;63.69;99228.53;5033482;28;20018;-78
2021/12/09 00:50:10;;;;;;;47.07;34.70;;;;;;;4.00;63.20;99275.09;5033491;28;20109;-77
2021/12/09 00:52:35;;;;;;;43.00;31.67;;;;;;;3.98;63.36;99267.41;5031939;28;20026;-77
2021/12/09 00:55:01;;;;;;;42.67;31.83;;;;;;;4.12;63.70;99293.06;5033526;28;20040;-78
2021/12/09 00:57:27;;;;;;;45.57;34.33;;;;;;;3.88;63.40;99250.13;5033096;28;20033;-78
2021/12/09 00:59:52;;;;;;;43.60;32.97;;;;;;;4.33;63.36;99326.00;5033045;28;20021;-78
2021/12/09 01:02:18;;;;;;;46.23;32.97;;;;;;;4.33;63.38;99352.94;5031916;28;20080;-78
2021/12/09 01:04:45;;;;;;;42.73;30.33;;;;;;;4.19;63.50;99323.84;5033088;28;20029;-78
2021/12/09 01:07:11;;;;;;;38.07;28.13;;;;;;;4.05;63.37;99304.22;5033074;28;20498;-77
2021/12/09 01:09:36;;;;;;;34.20;25.67;;;;;;;4.17;63.23;99323.97;5031722;28;20021;-78
2021/12/09 01:12:04;;;;;;;34.00;25.13;;;;;;;4.26;63.46;99351.03;5031795;28;20013;-77
2021/12/09 01:14:30;;;;;;;33.13;23.70;;;;;;;4.11;63.03;99348.06;5032967;28;20025;-78
2021/12/09 01:16:55;;;;;;;31.37;24.30;;;;;;;4.15;63.25;99352.03;5032785;28;20021;-77
2021/12/09 01:19:21;;;;;;;29.97;22.93;;;;;;;3.95;63.53;99319.09;5033057;28;20025;-78
2021/12/09 01:21:46;;;;;;;29.93;21.90;;;;;;;4.12;63.37;99353.16;5031912;28;20017;-78
2021/12/09 01:24:12;;;;;;;29.90;21.77;;;;;;;3.74;63.28;99301.81;5033110;28;20498;-78
2021/12/09 01:26:37;;;;;;;31.77;23.33;;;;;;;3.68;63.56;99284.06;5033114;28;20032;-78
2021/12/09 01:29:12;;;;;;;28.50;21.40;;;;;;;4.10;63.54;99349.03;5032802;28;20032;-77
2021/12/09 01:31:39;;;;;;;28.83;22.13;;;;;;;4.09;63.78;99350.00;5032708;28;20017;-78
2021/12/09 01:34:05;;;;;;;29.07;19.90;;;;;;;4.07;63.42;99341.47;5032754;28;20017;-77
2021/12/09 01:36:33;;;;;;;29.23;20.90;;;;;;;3.68;63.51;99273.63;5047870;28;20029;-77
2021/12/09 01:39:00;;;;;;;29.57;20.47;;;;;;;4.14;63.43;99334.72;5032411;28;20498;-78
2021/12/09 01:41:26;;;;;;;28.57;20.80;;;;;;;3.63;63.35;99251.53;5032127;28;20021;-78
2021/12/09 01:43:51;;;;;;;28.43;20.87;;;;;;;3.71;63.29;99273.34;5032725;28;20109;-78
2021/12/09 01:46:20;;;;;;;29.87;21.83;;;;;;;3.79;63.24;99281.34;5032369;28;20030;-77
2021/12/09 01:48:48;;;;;;;31.37;22.93;;;;;;;3.83;63.18;99303.59;5032413;28;20022;-78
2021/12/09 01:51:14;;;;;;;31.17;23.33;;;;;;;4.10;63.31;99344.63;5032382;28;20026;-78
2021/12/09 01:53:40;;;;;;;31.67;23.90;;;;;;;4.10;63.34;99333.34;5032168;28;20028;-78
2021/12/09 01:56:09;;;;;;;30.63;21.30;;;;;;;3.58;63.47;99249.34;5031663;28;20056;-77
2021/12/09 01:58:35;;;;;;;30.20;23.00;;;;;;;3.73;63.36;99270.63;5031972;28;20037;-78
2021/12/09 02:01:01;;;;;;;30.97;23.47;;;;;;;4.15;63.45;99336.38;5031832;28;20029;-78
2021/12/09 02:03:27;;;;;;;33.67;25.43;;;;;;;4.17;63.12;99342.28;5031778;28;20521;-78
2021/12/09 02:05:53;;;;;;;32.83;24.03;;;;;;;4.19;63.24;99342.94;5030872;28;20402;-77
2021/12/09 02:08:19;;;;;;;33.17;24.23;;;;;;;4.21;63.00;99348.84;5032561;28;20025;-78
2021/12/09 02:10:46;;;;;;;35.37;26.57;;;;;;;4.24;63.07;99339.91;5031108;28;20013;-78
2021/12/09 02:13:13;;;;;;;38.73;27.40;;;;;;;3.46;62.99;99224.38;5031077;28;20079;-78
2021/12/09 02:15:40;;;;;;;33.93;24.43;;;;;;;3.64;63.34;99271.44;5030746;28;20406;-78
2021/12/09 02:18:08;;;;;;;34.77;23.50;;;;;;;3.72;63.20;99285.47;5031970;28;20025;-78
2021/12/09 02:20:35;;;;;;;32.87;24.97;;;;;;;3.78;63.16;99295.34;5032011;28;20030;-77
2021/12/09 02:23:07;;;;;;;39.30;26.70;;;;;;;4.02;63.30;99351.53;5032314;28;20487;-78
2021/12/09 02:25:33;;;;;;;31.95;23.63;;;;;;;3.92;63.26;99353.34;5032361;28;20013;-78
2021/12/09 02:27:58;;;;;;;30.57;21.30;;;;;;;3.51;63.52;99292.63;5031677;28;20409;-78
2021/12/09 02:30:24;;;;;;;32.20;21.97;;;;;;;3.17;63.34;99227.03;5031970;28;20033;-78
2021/12/09 02:32:50;;;;;;;30.63;22.03;;;;;;;3.85;63.34;99326.13;5030685;28;20091;-78
2021/12/09 02:35:15;;;;;;;30.40;23.70;;;;;;;3.85;63.42;99315.69;5031557;28;20097;-77
2021/12/09 02:37:41;;;;;;;32.70;23.07;;;;;;;4.03;62.99;99340.09;5030216;28;20376;-78
2021/12/09 02:40:08;;;;;;;37.53;25.27;;;;;;;3.50;63.46;99262.28;5031667;28;20025;-77
2021/12/09 02:42:34;;;;;;;30.83;22.33;;;;;;;3.78;63.48;99308.41;5031978;28;20040;-78
2021/12/09 02:45:01;;;;;;;32.57;24.20;;;;;;;3.92;63.97;99319.38;5031809;28;20064;-77
2021/12/09 02:47:26;;;;;;;29.07;20.93;;;;;;;3.61;63.61;99279.56;5030241;28;20120;-77
2021/12/09 02:49:52;;;;;;;30.33;22.40;;;;;;;3.62;63.50;99283.81;5031854;28;20021;-78
2021/12/09 02:52:19;;;;;;;30.03;22.60;;;;;;;3.41;63.57;99250.06;5030435;28;20052;-78
2021/12/09 02:54:44;;;;;;;30.87;22.70;;;;;;;3.94;63.25;99326.09;5031580;28;20020;-78
2021/12/09 02:57:10;;;;;;;37.50;25.43;;;;;;;3.37;63.30;99249.50;5031515;28;20022;-78
2021/12/09 02:59:36;;;;;;;36.23;25.80;;;;;;;3.90;63.66;99329.97;5031574;28;20025;-78
2021/12/09 03:02:04;;;;;;;36.90;27.03;;;;;;;3.96;63.17;99328.56;5031611;28;20585;-78
2021/12/09 03:04:56;;;;;;;32.53;24.23;;;;;;;3.72;63.21;99282.88;5030542;28;20025;-78
2021/12/09 03:07:27;;;;;;;32.67;22.42;;;;;;;3.35;63.31;99224.53;5030162;28;20124;-78
2021/12/09 03:09:56;;;;;;;30.53;22.57;;;;;;;3.88;62.97;99300.56;5036064;28;20079;-78
2021/12/09 03:12:24;;;;;;;34.70;25.87;;;;;;;3.50;63.11;99230.94;5034275;28;20029;-78
2021/12/09 03:14:50;;;;;;;35.20;25.00;;;;;;;3.96;63.46;99320.75;5033899;28;20501;-77
2021/12/09 03:17:16;;;;;;;32.73;23.67;;;;;;;3.56;63.16;99253.06;5035010;28;20032;-77
2021/12/09 03:19:42;;;;;;;33.70;24.27;;;;;;;3.88;63.52;99310.19;5035264;28;20080;-78
2021/12/09 03:22:08;;;;;;;36.10;25.67;;;;;;;3.87;63.68;99321.59;5035595;28;20029;-78
2021/12/09 03:24:34;;;;;;;36.33;25.43;;;;;;;3.87;63.26;99319.81;5035202;28;20112;-77
2021/12/09 03:27:00;;;;;;;34.23;25.27;;;;;;;3.75;63.66;99292.22;5035344;28;20075;-77
2021/12/09 03:29:27;;;;;;;39.33;26.97;;;;;;;3.85;63.87;99315.69;5035155;28;20104;-77
2021/12/09 03:31:56;;;;;;;36.87;27.23;;;;;;;3.73;63.55;99309.81;5033633;28;20044;-78
2021/12/09 03:34:25;;;;;;;44.27;30.97;;;;;;;3.85;63.43;99323.53;5035161;28;20028;-78
2021/12/09 03:36:52;;;;;;;48.33;32.03;;;;;;;3.82;63.79;99325.44;5034611;28;20056;-77
2021/12/09 03:39:20;;;;;;;36.27;27.17;;;;;;;3.68;63.55;99293.69;5034747;28;20040;-77
2021/12/09 03:41:49;;;;;;;33.00;25.63;;;;;;;3.59;63.46;99277.09;5035026;28;20017;-77
2021/12/09 03:44:15;;;;;;;41.50;28.33;;;;;;;3.60;63.45;99294.41;5033467;28;20021;-76
2021/12/09 03:46:41;;;;;;;42.20;28.93;;;;;;;3.92;63.32;99329.81;5034516;28;20024;-78
2021/12/09 03:49:06;;;;;;;37.90;25.87;;;;;;;3.26;63.17;99226.19;5035034;28;20021;-78
2021/12/09 03:51:35;;;;;;;35.03;24.27;;;;;;;3.93;63.36;99336.69;5034658;28;20060;-77
2021/12/09 03:54:05;;;;;;;35.13;25.50;;;;;;;3.32;63.52;99261.34;5034619;28;20025;-78
2021/12/09 03:56:31;;;;;;;36.80;26.63;;;;;;;3.57;62.93;99299.06;5034238;28;20528;-78
2021/12/09 03:58:57;;;;;;;38.67;28.27;;;;;;;3.82;63.19;99333.28;5034410;28;20091;-78
2021/12/09 04:01:22;;;;;;;39.27;26.27;;;;;;;3.77;63.19;99325.03;5034570;28;20430;-78
2021/12/09 04:03:48;;;;;;;35.37;27.57;;;;;;;3.41;63.41;99279.59;5034313;28;20079;-78
2021/12/09 04:06:16;;;;;;;38.83;29.13;;;;;;;3.83;63.00;99328.88;5034893;28;20025;-78
2021/12/09 04:08:41;;;;;;;36.93;27.57;;;;;;;3.77;63.52;99332.06;5034615;28;20087;-78
2021/12/09 04:11:06;;;;;;;42.67;30.10;;;;;;;3.80;63.33;99327.38;5034352;28;20021;-77
2021/12/09 04:13:34;;;;;;;37.17;26.53;;;;;;;3.49;63.11;99286.72;5034689;28;20026;-78
2021/12/09 04:16:01;;;;;;;51.30;33.13;;;;;;;3.77;63.12;99338.09;5034306;28;20027;-77
2021/12/09 04:18:26;;;;;;;63.40;37.50;;;;;;;3.38;63.17;99266.81;5049142;28;20022;-78
2021/12/09 04:20:52;;;;;;;49.37;32.73;;;;;;;3.60;62.58;99286.56;5034353;28;20029;-77
2021/12/09 04:23:17;;;;;;;61.03;38.97;;;;;;;3.77;63.34;99332.06;5034140;28;20096;-78
2021/12/09 04:25:43;;;;;;;55.20;35.83;;;;;;;3.36;62.91;99252.25;5034127;28;20024;-78
2021/12/09 04:28:08;;;;;;;49.80;33.13;;;;;;;3.86;63.06;99340.84;5034138;28;20051;-78
2021/12/09 04:30:34;;;;;;;36.17;28.23;;;;;;;3.87;63.06;99339.88;5034146;28;20414;-78
2021/12/09 04:33:00;;;;;;;41.43;29.10;;;;;;;3.50;62.86;99289.19;5033736;28;20028;-78
2021/12/09 04:35:25;;;;;;;36.83;26.67;;;;;;;3.40;63.00;99274.50;5033841;28;20029;-78
2021/12/09 04:37:51;;;;;;;42.67;30.07;;;;;;;3.80;63.42;99344.84;5033796;28;20032;-77
2021/12/09 04:40:16;;;;;;;38.77;28.27;;;;;;;3.45;63.06;99288.78;5033390;28;20022;-78
2021/12/09 04:42:43;;;;;;;41.40;30.30;;;;;;;3.87;63.14;99353.75;5033398;28;20030;-78
2021/12/09 04:45:09;;;;;;;43.63;32.17;;;;;;;3.43;62.89;99266.41;5033593;28;20108;-78
2021/12/09 04:47:35;;;;;;;41.30;29.47;;;;;;;2.97;62.57;99194.88;5033773;28;20032;-77
2021/12/09 04:50:03;;;;;;;52.87;35.97;;;;;;;3.92;62.77;99345.50;5033414;28;20026;-78
2021/12/09 04:52:28;;;;;;;58.00;39.97;;;;;;;3.91;63.28;99346.47;5032314;28;20083;-77
2021/12/09 04:54:54;;;;;;;58.23;40.50;;;;;;;3.40;62.74;99267.50;5034066;28;20017;-78
2021/12/09 04:57:19;;;;;;;53.43;40.80;;;;;;;2.88;62.82;99186.09;5033622;28;20379;-78
2021/12/09 04:59:47;;;;;;;55.40;41.93;;;;;;;3.79;62.75;99328.34;5033879;28;20414;-77
2021/12/09 05:02:23;;;;;;;61.50;41.70;;;;;;;3.92;62.68;99350.72;5033255;28;20021;-78
2021/12/09 05:04:48;;;;;;;47.37;36.23;;;;;;;3.88;62.53;99365.03;5031899;28;20032;-78
2021/12/09 05:07:14;;;;;;;56.53;40.40;;;;;;;2.55;62.77;99156.06;5032997;28;20021;-78
2021/12/09 05:09:49;;;;;;;63.93;47.43;;;;;;;3.37;62.42;99288.66;5033276;28;20029;-78
2021/12/09 05:12:16;;;;;;;51.57;37.37;;;;;;;3.42;62.65;99309.94;5033183;28;20040;-78
2021/12/09 05:14:43;;;;;;;55.17;39.77;;;;;;;3.49;62.90;99333.69;5033142;28;20030;-77
2021/12/09 05:17:09;;;;;;;59.83;41.73;;;;;;;3.44;62.64;99341.94;5032914;28;20037;-78
2021/12/09 05:19:34;;;;;;;53.80;36.87;;;;;;;2.99;63.03;99289.47;5032811;28;20017;-77
2021/12/09 05:22:00;;;;;;;62.33;40.23;;;;;;;3.15;62.92;99310.63;5031372;28;20116;-77
2021/12/09 05:24:25;;;;;;;54.17;37.63;;;;;;;3.52;63.05;99372.56;5032443;28;20032;-78
2021/12/09 05:26:54;;;;;;;55.07;39.67;;;;;;;3.47;63.00;99361.72;5032382;28;20017;-78
2021/12/09 05:29:28;;;;;;;57.50;42.83;;;;;;;3.10;62.93;99304.19;5031891;28;20026;-78
2021/12/09 05:32:10;;;;;;;54.23;38.90;;;;;;;3.70;63.16;99376.16;5033023;28;20569;-78
2021/12/09 05:34:39;;;;;;;58.70;40.65;;;;;;;3.72;63.03;99378.66;5032672;28;20021;-78
2021/12/09 05:37:07;;;;;;;53.80;38.97;;;;;;;3.36;62.80;99314.88;5032437;28;20064;-78
2021/12/09 05:39:34;;;;;;;55.40;37.83;;;;;;;3.06;62.74;99266.28;5032572;28;20025;-78
2021/12/09 05:42:00;;;;;;;54.93;38.30;;;;;;;3.80;62.61;99365.72;5032499;28;20029;-77
2021/12/09 05:44:26;;;;;;;54.77;37.83;;;;;;;3.81;62.32;99376.03;5032476;28;20021;-78
2021/12/09 05:46:52;;;;;;;54.07;38.43;;;;;;;3.83;62.49;99376.72;5032121;28;20021;-78
2021/12/09 05:49:19;;;;;;;58.03;40.00;;;;;;;3.84;62.55;99380.16;5032094;28;20024;-78
2021/12/09 05:51:45;;;;;;;62.43;41.33;;;;;;;3.00;62.36;99252.00;5032539;28;20027;-78
2021/12/09 05:54:10;;;;;;;74.27;49.27;;;;;;;3.30;62.61;99299.78;5032510;28;20025;-78
2021/12/09 05:56:36;;;;;;;67.00;45.63;;;;;;;3.72;62.30;99379.47;5032337;28;20057;-77
2021/12/09 05:59:03;;;;;;;61.37;41.83;;;;;;;3.69;62.83;99368.44;5032706;28;20087;-77
2021/12/09 06:01:29;;;;;;;68.00;45.90;;;;;;;3.27;62.53;99318.31;5032246;28;20056;-77
2021/12/09 06:03:54;;;;;;;73.40;47.43;;;;;;;3.55;62.49;99363.66;5032472;28;20048;-78
2021/12/09 06:06:20;;;;;;;84.30;58.30;;;;;;;3.39;62.80;99348.53;5032509;28;20405;-77
2021/12/09 06:08:46;;;;;;;90.43;62.97;;;;;;;3.47;62.93;99362.56;5032629;28;20021;-77
2021/12/09 06:11:11;;;;;;;77.00;56.40;;;;;;;3.71;62.71;99413.53;5037826;28;20410;-77
2021/12/09 06:13:38;;;;;;;73.33;51.50;;;;;;;3.23;62.40;99330.81;5051750;28;20045;-76
2021/12/09 06:16:05;;;;;;;69.33;48.50;;;;;;;3.76;62.47;99409.56;5051359;28;20025;-76
2021/12/09 06:18:32;;;;;;;56.37;38.17;;;;;;;3.54;63.53;99359.38;5051546;28;20505;-77
2021/12/09 06:20:57;;;;;;;57.73;42.33;;;;;;;3.60;63.08;99351.81;5050353;28;20090;-76
2021/12/09 06:23:23;;;;;;;68.60;43.77;;;;;;;3.37;62.86;99296.50;5050402;28;20509;-76
2021/12/09 06:25:50;;;;;;;70.73;44.70;;;;;;;3.65;62.37;99349.63;5050285;28;20159;-77
2021/12/09 06:28:16;;;;;;;68.50;43.87;;;;;;;3.74;61.73;99369.72;5052085;28;20029;-76
2021/12/09 06:30:42;;;;;;;68.07;42.93;;;;;;;3.72;61.66;99382.09;5040765;28;20022;-77
2021/12/09 06:33:08;;;;;;;68.97;42.20;;;;;;;3.98;61.78;99428.53;5045112;28;20025;-76
2021/12/09 06:35:34;;;;;;;68.93;43.80;;;;;;;3.79;61.28;99424.97;5051438;28;20159;-77
2021/12/09 06:38:00;;;;;;;66.53;43.50;;;;;;;3.21;61.71;99344.97;5052134;28;20024;-77
2021/12/09 06:40:26;;;;;;;74.10;47.13;;;;;;;3.72;61.99;99463.03;5047320;28;20020;-77
2021/12/09 06:42:53;;;;;;;68.27;45.90;;;;;;;3.63;62.01;99468.22;5038722;28;20032;-77
2021/12/09 06:45:22;;;;;;;81.30;54.43;;;;;;;3.55;61.93;99466.28;5034465;28;20409;-76
2021/12/09 06:47:48;;;;;;;56.37;41.67;;;;;;;3.11;62.29;99407.56;5035980;28;20049;-76
2021/12/09 06:50:18;;;;;;;64.47;45.17;;;;;;;3.55;62.37;99471.50;5053276;28;20489;-77
2021/12/09 06:52:43;;;;;;;59.80;41.83;;;;;;;3.63;62.18;99476.88;5055730;28;20040;-77
2021/12/09 06:55:14;;;;;;;57.80;40.07;;;;;;;3.66;62.08;99478.38;5055497;28;20029;-76
2021/12/09 06:57:44;;;;;;;56.07;40.50;;;;;;;2.65;62.36;99306.41;5055748;28;20052;-77
2021/12/09 07:00:13;;;;;;;58.27;41.47;;;;;;;3.43;62.91;99442.06;5056156;28;20035;-78
2021/12/09 07:02:39;;;;;;;50.33;35.47;;;;;;;3.49;62.56;99454.59;5055772;28;20032;-77
2021/12/09 07:05:07;;;;;;;49.47;36.70;;;;;;;3.60;63.22;99466.69;5058557;28;20026;-77
2021/12/09 07:07:33;;;;;;;45.30;32.73;;;;;;;3.63;63.27;99471.66;5047142;28;20104;-77
2021/12/09 07:09:59;;;;;;;52.03;36.93;;;;;;;3.50;63.31;99451.03;5054934;28;20064;-76
2021/12/09 07:12:24;;;;;;;54.07;37.37;;;;;;;3.33;63.20;99390.84;5055769;28;20107;-77
2021/12/09 07:14:50;;;;;;;66.40;46.23;;;;;;;3.21;63.05;99371.03;5054814;28;20107;-77
2021/12/09 07:17:16;;;;;;;71.07;51.10;;;;;;;3.56;63.08;99405.28;5053969;28;20032;-77
2021/12/09 07:19:42;;;;;;;71.60;50.17;;;;;;;3.73;62.60;99435.94;5043532;28;20035;-78
2021/12/09 07:22:08;;;;;;;59.73;43.10;;;;;;;3.62;62.75;99391.66;5046778;28;20025;-78
2021/12/09 07:24:33;;;;;;;62.97;45.33;;;;;;;3.95;62.49;99440.06;5033550;28;20100;-78
2021/12/09 07:26:59;;;;;;;63.30;43.93;;;;;;;4.18;62.07;99466.72;5036846;28;20112;-76
2021/12/09 07:29:26;;;;;;;64.73;43.07;;;;;;;3.96;61.88;99417.38;5034207;28;20053;-77
2021/12/09 07:31:52;;;;;;;63.93;44.67;;;;;;;4.05;61.83;99438.28;5036887;28;20021;-76
2021/12/09 07:34:19;;;;;;;64.83;44.50;;;;;;;3.86;61.53;99406.13;5042903;28;20100;-77
2021/12/09 07:36:44;;;;;;;63.37;43.80;;;;;;;3.66;61.83;99364.34;5039225;28;20030;-78
2021/12/09 07:39:10;;;;;;;67.23;44.80;;;;;;;4.26;61.74;99451.19;5034705;28;20025;-77
2021/12/09 07:41:35;;;;;;;65.30;44.20;;;;;;;3.77;61.56;99369.44;5034761;28;20025;-78
2021/12/09 07:44:02;;;;;;;67.00;45.53;;;;;;;4.39;61.58;99454.31;5035343;28;20073;-77
2021/12/09 07:46:29;;;;;;;67.80;45.80;;;;;;;4.41;61.62;99456.78;5033438;28;20026;-77
2021/12/09 07:48:54;;;;;;;68.53;48.83;;;;;;;4.43;61.69;99460.91;5037514;28;20478;-77
2021/12/09 07:51:20;;;;;;;66.57;48.23;;;;;;;4.22;61.68;99421.06;5035677;28;20025;-77
2021/12/09 07:53:45;;;;;;;67.17;44.07;;;;;;;4.05;61.88;99401.69;5034064;28;20056;-78
2021/12/09 07:56:10;;;;;;;67.33;45.50;;;;;;;4.53;62.09;99452.25;5037955;28;20544;-78
2021/12/09 07:58:36;;;;;;;62.53;44.53;;;;;;;4.46;61.96;99424.06;5031323;28;20529;-77
2021/12/09 08:01:03;;;;;;;64.67;46.40;;;;;;;4.74;61.65;99458.91;5028436;28;20025;-77
2021/12/09 08:03:28;;;;;;;63.17;44.90;;;;;;;4.83;61.69;99467.69;5027417;28;20032;-78
2021/12/09 08:05:53;;;;;;;63.07;44.37;;;;;;;4.39;61.50;99398.59;5028085;28;20017;-78
2021/12/09 08:08:19;;;;;;;57.90;38.20;;;;;;;4.95;61.47;99484.88;5026702;28;20071;-78
2021/12/09 08:10:45;;;;;;;62.57;42.60;;;;;;;4.68;61.52;99428.13;5028148;28;20488;-78
2021/12/09 08:13:12;;;;;;;68.43;49.40;;;;;;;4.99;61.67;99454.84;5030007;28;20457;-78
2021/12/09 08:15:45;;;;;;;71.70;49.80;;;;;;;5.05;61.71;99461.28;5032515;28;20125;-77
2021/12/09 08:18:27;;;;;;;70.17;48.40;;;;;;;5.06;61.52;99448.06;5033476;28;20052;-78
2021/12/09 08:20:59;;;;;;;75.30;49.20;;;;;;;4.77;61.93;99381.97;5033267;28;20079;-77
2021/12/09 08:23:25;;;;;;;70.73;46.00;;;;;;;4.76;61.67;99369.84;5025316;28;20032;-77
2021/12/09 08:25:52;;;;;;;66.23;44.17;;;;;;;5.21;62.06;99445.81;5024836;28;20053;-77
2021/12/09 08:28:18;;;;;;;69.57;44.90;;;;;;;5.23;62.02;99441.25;5033021;28;20029;-77
2021/12/09 08:30:44;;;;;;;72.93;48.30;;;;;;;5.11;62.11;99416.22;5034583;28;20033;-77
2021/12/09 08:33:10;;;;;;;71.77;47.53;;;;;;;4.91;62.25;99381.47;5033637;28;20017;-78
2021/12/09 08:35:37;;;;;;;70.37;47.13;;;;;;;5.33;61.88;99447.25;5030563;28;20030;-77
2021/12/09 08:38:04;;;;;;;70.73;47.23;;;;;;;5.40;61.95;99447.47;5032177;28;20154;-77
2021/12/09 08:40:30;;;;;;;68.60;45.67;;;;;;;4.74;62.28;99324.72;5031426;28;20056;-78
2021/12/09 08:42:56;;;;;;;73.77;47.93;;;;;;;5.05;62.06;99373.13;5030724;28;20494;-78
2021/12/09 08:45:22;;;;;;;75.67;47.77;;;;;;;4.75;62.08;99311.50;5043491;28;20025;-78
2021/12/09 08:47:49;;;;;;;69.87;48.07;;;;;;;5.46;62.16;99407.63;5034753;28;20037;-78
2021/12/09 08:50:19;;;;;;;63.93;43.57;;;;;;;5.49;62.19;99401.25;5039421;28;20028;-78
2021/12/09 08:52:45;;;;;;;62.50;40.10;;;;;;;5.64;62.31;99418.09;5058716;28;20071;-78
2021/12/09 08:55:11;;;;;;;56.00;34.80;;;;;;;5.38;61.86;99357.78;5033382;28;20036;-77
2021/12/09 08:57:37;;;;;;;53.70;34.73;;;;;;;5.74;62.22;99413.59;5036204;28;20021;-78
2021/12/09 09:00:09;;;;;;;61.73;36.77;;;;;;;5.77;61.93;99407.25;5032925;28;20452;-77
2021/12/09 09:02:36;;;;;;;60.83;36.92;;;;;;;5.60;62.34;99382.69;5033696;28;20025;-79
2021/12/09 09:05:04;;;;;;;59.80;36.90;;;;;;;5.71;62.10;99375.44;5025077;28;20029;-78
2021/12/09 09:07:29;;;;;;;61.10;37.40;;;;;;;5.69;62.31;99368.69;5019183;28;20029;-78
2021/12/09 09:09:55;;;;;;;55.43;34.77;;;;;;;5.59;62.71;99342.59;5046863;28;20029;-78
2021/12/09 09:12:20;;;;;;;55.67;34.83;;;;;;;5.17;62.64;99276.09;5045428;28;20559;-77
2021/12/09 09:14:46;;;;;;;51.33;33.07;;;;;;;5.54;62.42;99326.50;5026843;28;20083;-78
2021/12/09 09:17:12;;;;;;;48.83;31.27;;;;;;;5.86;62.92;99370.47;5031319;28;20084;-78
2021/12/09 09:19:37;;;;;;;42.53;30.27;;;;;;;6.00;62.42;99377.03;5028666;28;20045;-78
2021/12/09 09:22:04;;;;;;;48.07;30.77;;;;;;;5.80;62.21;99328.34;5031174;28;20033;-78
2021/12/09 09:24:29;;;;;;;49.17;31.97;;;;;;;5.70;62.13;99294.38;5029894;28;20039;-78
2021/12/09 09:26:55;;;;;;;46.90;29.90;;;;;;;5.88;62.10;99315.31;5024552;28;20096;-78
2021/12/09 09:29:21;;;;;;;46.40;32.97;;;;;;;5.93;62.05;99315.69;5031836;28;20045;-78
2021/12/09 09:31:46;;;;;;;53.77;34.70;;;;;;;5.43;62.08;99219.41;5031852;28;20033;-78
2021/12/09 09:34:12;;;;;;;55.53;35.67;;;;;;;5.97;62.10;99323.13;5031746;28;20033;-77
2021/12/09 09:36:43;;;;;;;51.27;32.17;;;;;;;5.99;61.98;99296.75;5030218;28;20498;-76
2021/12/09 09:39:20;;;;;;;45.08;29.67;;;;;;;5.84;62.13;99264.19;5028393;28;20025;-78
2021/12/09 09:42:01;;;;;;;46.53;31.93;;;;;;;6.42;61.94;99342.22;5027260;28;20068;-78
2021/12/09 09:44:33;;;;;;;50.10;32.40;;;;;;;6.49;62.47;99336.19;5040546;28;20024;-77
2021/12/09 09:47:00;;;;;;;49.30;31.50;;;;;;;6.27;62.55;99292.97;5018797;28;20028;-78
2021/12/09 09:49:26;;;;;;;52.10;34.60;;;;;;;6.59;62.84;99330.81;5017769;28;20029;-78
2021/12/09 09:51:56;;;;;;;53.78;33.17;;;;;;;6.69;61.81;99321.06;5036348;28;20098;-78
2021/12/09 09:54:22;;;;;;;45.83;31.10;;;;;;;6.44;62.29;99278.16;5055776;28;20082;-77
2021/12/09 09:56:49;;;;;;;44.90;30.37;;;;;;;6.76;62.52;99322.06;5049687;28;20057;-76
2021/12/09 09:59:17;;;;;;;48.53;32.83;;;;;;;6.83;62.28;99317.00;5051462;28;20486;-78
2021/12/09 10:01:44;;;;;;;47.95;32.17;;;;;;;6.45;62.03;99237.00;5070755;28;20020;-78
2021/12/09 10:04:12;;;;;;;45.83;32.03;;;;;;;6.72;61.85;99265.63;5061701;28;20514;-79
2021/12/09 10:06:39;;;;;;;43.55;30.10;;;;;;;6.27;61.44;99188.13;5062709;28;20024;-77
2021/12/09 10:09:07;;;;;;;43.75;30.75;;;;;;;7.01;61.54;99300.16;5042041;28;20029;-78
2021/12/09 10:11:33;;;;;;;42.50;30.30;;;;;;;6.69;61.45;99269.41;5057412;28;20508;-79
2021/12/09 10:14:18;;;;;;;38.10;27.98;;;;;;;6.69;61.32;99229.22;5042858;28;20017;-78
2021/12/09 10:16:45;;;;;;;39.63;28.33;;;;;;;7.22;60.95;99310.19;5033436;28;20033;-78
2021/12/09 10:19:22;;;;;;;37.95;27.48;;;;;;;6.97;60.97;99267.34;5042882;28;20028;-78
2021/12/09 10:21:49;;;;;;;41.10;28.95;;;;;;;6.52;60.59;99185.56;5047470;28;20105;-78
2021/12/09 10:24:16;;;;;;;35.85;26.58;;;;;;;7.21;60.33;99286.72;5046648;28;20035;-77
2021/12/09 10:26:46;;;;;;;40.25;28.90;;;;;;;7.31;60.23;99297.88;5035990;28;20029;-79
2021/12/09 10:29:28;;;;;;;38.13;27.42;;;;;;;7.43;60.48;99298.38;5038370;28;20032;-77
2021/12/09 10:32:00;;;;;;;39.65;27.75;;;;;;;7.46;60.84;99303.34;5045099;28;20029;-78
2021/12/09 10:34:39;;;;;;;39.72;27.95;;;;;;;7.47;60.10;99291.84;5049506;28;20025;-77
2021/12/09 10:37:21;;;;;;;39.17;27.67;;;;;;;7.26;60.72;99251.09;5035437;28;20090;-78
2021/12/09 10:39:55;;;;;;;39.03;28.33;;;;;;;7.51;60.82;99293.97;5050693;28;20045;-76
2021/12/09 10:42:25;;;;;;;38.83;28.73;;;;;;;7.25;60.49;99261.78;5066148;28;20036;-77
2021/12/09 10:44:59;;;;;;;42.10;32.35;;;;;;;7.49;60.45;99264.44;5046593;28;20021;-78
2021/12/09 10:47:59;;;;;;;39.10;27.83;;;;;;;7.53;60.41;99281.50;5034768;28;20106;-78
2021/12/09 10:53:17;;;;;;;37.40;28.52;;;;;;;7.36;60.24;99237.00;5035378;28;20037;-78
2021/12/09 10:55:44;;;;;;;37.00;26.65;;;;;;;7.68;60.00;99265.06;5028516;28;20648;-78
2021/12/09 10:58:12;;;;;;;34.40;25.98;;;;;;;7.50;60.43;99237.19;5044468;28;20025;-77
2021/12/09 11:00:59;;;;;;;41.95;29.77;;;;;;;7.40;59.93;99215.47;5032577;28;20029;-78
2021/12/09 11:03:41;;;;;;;35.50;27.77;;;;;;;7.75;60.64;99271.31;5040944;28;20032;-79
2021/12/09 11:06:29;;;;;;;39.33;28.77;;;;;;;7.49;60.71;99226.84;5043135;28;20017;-78
2021/12/09 11:08:56;;;;;;;44.05;30.52;;;;;;;7.49;60.33;99222.41;5040139;28;20552;-77
2021/12/09 11:11:41;;;;;;;42.25;29.90;;;;;;;7.70;60.45;99263.09;5053289;28;20032;-78
2021/12/09 11:14:14;;;;;;;43.10;30.10;;;;;;;6.97;60.41;99140.53;5061364;28;20082;-78
2021/12/09 11:16:43;;;;;;;49.22;33.72;;;;;;;7.72;60.46;99248.81;5051587;28;20032;-78
2021/12/09 11:19:11;;;;;;;48.08;33.58;;;;;;;7.76;60.44;99226.47;5061446;28;20036;-77
2021/12/09 11:21:43;;;;;;;50.08;36.22;;;;;;;7.33;61.28;99154.94;5042564;28;20072;-77
2021/12/09 11:24:20;;;;;;;56.63;36.25;;;;;;;7.65;61.02;99211.88;5046015;28;20409;-78
2021/12/09 11:26:58;;;;;;;44.40;30.58;;;;;;;7.53;61.44;99188.75;5049013;28;20095;-77
2021/12/09 11:29:37;;;;;;;45.28;31.05;;;;;;;7.87;61.51;99220.03;5040201;28;20024;-77
2021/12/09 11:32:12;;;;;;;43.70;31.77;;;;;;;7.93;61.35;99224.59;5053000;28;20490;-78